createdAt,value
2024-02-20T00:00:50.906Z,320
2024-02-20T00:02:00.086Z,320
2024-02-20T00:03:09.336Z,318
2024-02-20T00:04:18.509Z,320
2024-02-20T00:05:27.797Z,320
2024-02-20T00:06:36.776Z,320
2024-02-20T00:07:45.952Z,320
2024-02-20T00:08:55.223Z,321
2024-02-20T00:10:04.299Z,105
2024-02-20T00:11:13.472Z,277
2024-02-20T00:12:21.654Z,271
2024-02-20T00:13:30.847Z,267
2024-02-20T00:14:40.079Z,260
2024-02-20T00:15:49.293Z,191
2024-02-20T00:16:58.352Z,230
2024-02-20T00:18:07.623Z,127
2024-02-20T00:19:16.813Z,159
2024-02-20T00:20:25.930Z,23
2024-02-20T00:21:35.073Z,23
2024-02-20T00:22:44.280Z,29
2024-02-20T00:23:53.725Z,29
2024-02-20T00:25:02.764Z,42
2024-02-20T00:26:12.000Z,43
2024-02-20T00:27:20.254Z,299
2024-02-20T00:28:29.158Z,273
2024-02-20T00:29:38.496Z,275
2024-02-20T00:30:47.623Z,46
2024-02-20T00:31:56.672Z,40
2024-02-20T00:33:06.033Z,90
2024-02-20T00:34:15.283Z,244
2024-02-20T00:35:24.267Z,301
2024-02-20T00:36:33.455Z,301
2024-02-20T00:37:42.608Z,300
2024-02-20T00:38:51.822Z,252
2024-02-20T00:40:00.908Z,340
2024-02-20T00:41:10.209Z,100
2024-02-20T00:42:18.412Z,98
2024-02-20T00:43:27.529Z,229
2024-02-20T00:44:36.636Z,164
2024-02-20T00:45:45.720Z,244
2024-02-20T00:46:54.916Z,210
2024-02-20T00:48:04.089Z,262
2024-02-20T00:49:13.521Z,289
2024-02-20T00:50:22.496Z,191
2024-02-20T00:51:31.595Z,271
2024-02-20T00:52:40.915Z,336
2024-02-20T00:53:50.196Z,213
2024-02-20T00:54:59.390Z,235
2024-02-20T00:56:08.536Z,194
2024-02-20T00:57:16.701Z,180
2024-02-20T00:58:25.660Z,52
2024-02-20T00:59:34.973Z,337
2024-02-20T01:00:44.175Z,310
2024-02-20T01:01:53.269Z,307
2024-02-20T01:03:02.568Z,309
2024-02-20T01:04:11.528Z,330
2024-02-20T01:05:20.748Z,332
2024-02-20T01:06:30.004Z,330
2024-02-20T01:07:39.356Z,234
2024-02-20T01:08:48.198Z,122
2024-02-20T01:09:57.690Z,116
2024-02-20T01:11:06.557Z,259
2024-02-20T01:12:14.802Z,292
2024-02-20T01:13:23.907Z,274
2024-02-20T01:15:42.247Z,226
2024-02-20T01:16:51.615Z,226
2024-02-20T01:18:00.609Z,226
2024-02-20T01:19:09.971Z,227
2024-02-20T01:20:19.018Z,172
2024-02-20T01:21:28.111Z,247
2024-02-20T01:22:37.283Z,194
2024-02-20T01:23:46.490Z,241
2024-02-20T01:24:55.847Z,0
2024-02-20T01:26:05.239Z,234
2024-02-20T01:27:13.026Z,248
2024-02-20T01:28:22.179Z,284
2024-02-20T01:29:31.646Z,295
2024-02-20T01:30:40.630Z,266
2024-02-20T01:31:49.861Z,147
2024-02-20T01:32:58.981Z,311
2024-02-20T01:34:07.247Z,312
2024-02-20T01:35:16.246Z,311
2024-02-20T01:36:25.420Z,259
2024-02-20T01:37:34.596Z,108
2024-02-20T01:38:43.897Z,285
2024-02-20T01:39:53.063Z,284
2024-02-20T01:41:02.134Z,46
2024-02-20T01:42:11.506Z,324
2024-02-20T01:43:20.734Z,270
2024-02-20T01:44:29.631Z,270
2024-02-20T01:45:38.976Z,277
2024-02-20T01:46:47.992Z,276
2024-02-20T01:47:57.420Z,276
2024-02-20T01:49:05.341Z,275
2024-02-20T01:50:14.642Z,276
2024-02-20T01:51:23.688Z,276
2024-02-20T01:52:32.948Z,100
2024-02-20T01:53:42.128Z,321
2024-02-20T01:54:51.388Z,321
2024-02-20T01:56:00.374Z,318
2024-02-20T01:57:09.750Z,288
2024-02-20T01:58:18.816Z,288
2024-02-20T01:59:28.148Z,288
2024-02-20T02:00:37.210Z,287
2024-02-20T02:01:46.237Z,287
2024-02-20T02:02:55.638Z,287
2024-02-20T02:04:03.592Z,288
2024-02-20T02:05:12.767Z,290
2024-02-20T02:06:21.971Z,288
2024-02-20T02:07:31.130Z,281
2024-02-20T02:08:40.523Z,281
2024-02-20T02:09:49.457Z,282
2024-02-20T02:10:58.627Z,283
2024-02-20T02:12:07.965Z,283
2024-02-20T02:13:17.103Z,283
2024-02-20T02:14:26.147Z,282
2024-02-20T02:15:35.406Z,283
2024-02-20T02:16:44.542Z,137
2024-02-20T02:17:53.834Z,139
2024-02-20T02:19:01.873Z,239
2024-02-20T02:20:11.144Z,241
2024-02-20T02:21:20.456Z,240
2024-02-20T02:22:29.379Z,242
2024-02-20T02:23:38.551Z,209
2024-02-20T02:24:47.722Z,218
2024-02-20T02:25:57.223Z,218
2024-02-20T02:27:06.219Z,219
2024-02-20T02:28:15.236Z,237
2024-02-20T02:29:24.441Z,240
2024-02-20T02:30:33.785Z,238
2024-02-20T02:31:42.826Z,238
2024-02-20T02:32:51.948Z,111
2024-02-20T02:34:00.126Z,276
2024-02-20T02:35:09.379Z,276
2024-02-20T02:36:18.463Z,276
2024-02-20T02:37:27.690Z,276
2024-02-20T02:38:37.050Z,278
2024-02-20T02:39:45.998Z,275
2024-02-20T02:40:55.252Z,276
2024-02-20T02:42:04.335Z,275
2024-02-20T02:43:13.578Z,276
2024-02-20T02:44:22.695Z,275
2024-02-20T02:45:32.014Z,276
2024-02-20T02:46:41.018Z,275
2024-02-20T02:47:50.254Z,276
2024-02-20T02:48:58.599Z,277
2024-02-20T02:50:07.617Z,277
2024-02-20T02:51:16.904Z,284
2024-02-20T02:52:25.904Z,283
2024-02-20T02:53:35.207Z,284
2024-02-20T02:54:44.262Z,324
2024-02-20T02:55:53.548Z,284
2024-02-20T02:57:02.591Z,303
2024-02-20T02:58:11.769Z,303
2024-02-20T02:59:21.050Z,302
2024-02-20T03:00:30.256Z,303
2024-02-20T03:01:39.278Z,303
2024-02-20T03:02:48.456Z,296
2024-02-20T03:03:56.949Z,297
2024-02-20T03:05:05.853Z,296
2024-02-20T03:06:15.069Z,297
2024-02-20T03:07:24.195Z,306
2024-02-20T03:08:33.672Z,307
2024-02-20T03:09:42.574Z,306
2024-02-20T03:10:51.777Z,308
2024-02-20T03:12:00.865Z,308
2024-02-20T03:13:10.029Z,306
2024-02-20T03:14:19.327Z,307
2024-02-20T03:15:28.610Z,217
2024-02-20T03:16:37.646Z,210
2024-02-20T03:17:46.784Z,243
2024-02-20T03:20:04.409Z,242
2024-02-20T03:21:13.481Z,242
2024-02-20T03:22:22.529Z,309
2024-02-20T03:23:31.702Z,309
2024-02-20T03:24:40.930Z,309
2024-02-20T03:25:50.285Z,310
2024-02-20T03:26:59.416Z,309
2024-02-20T03:28:08.386Z,309
2024-02-20T03:29:17.506Z,308
2024-02-20T03:30:26.638Z,309
2024-02-20T03:31:35.802Z,309
2024-02-20T03:32:45.177Z,308
2024-02-20T03:33:53.163Z,308
2024-02-20T03:35:02.348Z,309
2024-02-20T03:36:11.517Z,199
2024-02-20T03:37:20.696Z,201
2024-02-20T03:38:30.065Z,200
2024-02-20T03:39:39.252Z,248
2024-02-20T03:40:48.204Z,247
2024-02-20T03:41:57.646Z,250
2024-02-20T03:43:06.538Z,247
2024-02-20T03:44:15.714Z,96
2024-02-20T03:45:24.983Z,97
2024-02-20T03:46:34.064Z,340
2024-02-20T03:47:43.261Z,341
2024-02-20T03:48:52.601Z,342
2024-02-20T03:50:00.751Z,291
2024-02-20T03:51:09.881Z,290
2024-02-20T03:52:19.031Z,290
2024-02-20T03:53:28.216Z,200
2024-02-20T03:54:37.472Z,259
2024-02-20T03:55:46.615Z,257
2024-02-20T03:56:55.661Z,241
2024-02-20T03:58:04.877Z,246
2024-02-20T03:59:13.989Z,246
2024-02-20T04:00:23.154Z,329
2024-02-20T04:01:32.406Z,329
2024-02-20T04:02:41.797Z,329
2024-02-20T04:03:50.888Z,328
2024-02-20T04:04:58.861Z,329
2024-02-20T04:06:08.017Z,328
2024-02-20T04:07:17.416Z,327
2024-02-20T04:08:26.366Z,329
2024-02-20T04:09:35.548Z,31
2024-02-20T04:10:44.719Z,25
2024-02-20T04:11:54.006Z,25
2024-02-20T04:13:03.113Z,25
2024-02-20T04:14:12.498Z,25
2024-02-20T04:15:21.400Z,25
2024-02-20T04:16:30.736Z,24
2024-02-20T04:17:39.889Z,24
2024-02-20T04:18:48.929Z,25
2024-02-20T04:19:57.217Z,24
2024-02-20T04:21:06.426Z,110
2024-02-20T04:22:15.563Z,325
2024-02-20T04:23:24.789Z,325
2024-02-20T04:24:33.803Z,326
2024-02-20T04:25:42.978Z,325
2024-02-20T04:26:52.455Z,195
2024-02-20T04:28:01.594Z,194
2024-02-20T04:29:10.493Z,196
2024-02-20T04:30:19.872Z,305
2024-02-20T04:31:28.940Z,304
2024-02-20T04:32:38.022Z,170
2024-02-20T04:33:47.198Z,196
2024-02-20T04:34:55.376Z,196
2024-02-20T04:36:04.682Z,195
2024-02-20T04:37:13.982Z,167
2024-02-20T04:38:22.883Z,177
2024-02-20T04:39:32.116Z,181
2024-02-20T04:40:41.229Z,180
2024-02-20T04:41:50.405Z,181
2024-02-20T04:42:59.593Z,181
2024-02-20T04:44:08.852Z,182
2024-02-20T04:45:18.013Z,182
2024-02-20T04:46:27.087Z,192
2024-02-20T04:47:36.261Z,219
2024-02-20T04:48:45.530Z,155
2024-02-20T04:49:53.623Z,153
2024-02-20T04:51:03.070Z,254
2024-02-20T04:52:11.962Z,268
2024-02-20T04:53:21.461Z,268
2024-02-20T04:54:30.362Z,266
2024-02-20T04:55:39.661Z,265
2024-02-20T04:56:48.757Z,147
2024-02-20T04:57:58.015Z,152
2024-02-20T04:59:07.291Z,170
2024-02-20T05:00:16.183Z,195
2024-02-20T05:01:25.564Z,206
2024-02-20T05:02:34.519Z,205
2024-02-20T05:03:43.889Z,205
2024-02-20T05:04:51.876Z,204
2024-02-20T05:06:01.040Z,206
2024-02-20T05:07:10.400Z,191
2024-02-20T05:08:19.424Z,189
2024-02-20T05:09:28.585Z,188
2024-02-20T05:10:37.772Z,188
2024-02-20T05:11:46.926Z,189
2024-02-20T05:12:56.084Z,190
2024-02-20T05:14:05.449Z,188
2024-02-20T05:15:14.599Z,190
2024-02-20T05:16:23.627Z,190
2024-02-20T05:17:32.872Z,157
2024-02-20T05:18:41.957Z,157
2024-02-20T05:19:50.137Z,183
2024-02-20T05:20:59.406Z,179
2024-02-20T05:22:08.477Z,180
2024-02-20T05:23:17.818Z,178
2024-02-20T05:24:26.858Z,180
2024-02-20T05:25:35.025Z,171
2024-02-20T05:26:44.191Z,172
2024-02-20T05:27:53.373Z,171
2024-02-20T05:29:02.544Z,171
2024-02-20T05:30:11.765Z,170
2024-02-20T05:31:20.897Z,169
2024-02-20T05:32:30.177Z,173
2024-02-20T05:33:39.248Z,162
2024-02-20T05:34:48.414Z,170
2024-02-20T05:35:57.568Z,176
2024-02-20T05:38:16.014Z,181
2024-02-20T05:39:25.092Z,182
2024-02-20T05:40:34.272Z,182
2024-02-20T05:41:43.562Z,182
2024-02-20T05:42:51.753Z,182
2024-02-20T05:44:00.944Z,182
2024-02-20T05:45:09.997Z,182
2024-02-20T05:46:19.423Z,182
2024-02-20T05:47:28.310Z,182
2024-02-20T05:48:37.572Z,181
2024-02-20T05:49:46.661Z,178
2024-02-20T05:50:55.831Z,176
2024-02-20T05:52:04.996Z,179
2024-02-20T05:53:14.176Z,178
2024-02-20T05:54:23.582Z,180
2024-02-20T05:55:32.520Z,180
2024-02-20T05:56:41.705Z,210
2024-02-20T05:57:49.950Z,171
2024-02-20T05:58:59.050Z,181
2024-02-20T06:00:08.309Z,183
2024-02-20T06:01:17.397Z,183
2024-02-20T06:02:26.632Z,183
2024-02-20T06:03:35.752Z,182
2024-02-20T06:04:44.915Z,204
2024-02-20T06:05:54.241Z,174
2024-02-20T06:07:03.325Z,174
2024-02-20T06:08:12.792Z,174
2024-02-20T06:09:21.835Z,167
2024-02-20T06:10:30.921Z,172
2024-02-20T06:11:39.955Z,170
2024-02-20T06:12:48.140Z,170
2024-02-20T06:13:57.350Z,170
2024-02-20T06:15:06.686Z,170
2024-02-20T06:16:15.664Z,170
2024-02-20T06:17:24.829Z,192
2024-02-20T06:18:34.021Z,191
2024-02-20T06:19:43.411Z,194
2024-02-20T06:22:01.522Z,190
2024-02-20T06:23:10.692Z,193
2024-02-20T06:24:19.919Z,189
2024-02-20T06:25:29.047Z,160
2024-02-20T06:27:47.388Z,162
2024-02-20T06:28:55.568Z,174
2024-02-20T06:30:04.779Z,163
2024-02-20T06:31:14.043Z,153
2024-02-20T06:32:23.237Z,156
2024-02-20T06:33:32.287Z,154
2024-02-20T06:34:41.453Z,147
2024-02-20T06:35:50.660Z,148
2024-02-20T06:36:59.848Z,158
2024-02-20T06:38:08.988Z,155
2024-02-20T06:39:18.128Z,144
2024-02-20T06:40:27.394Z,156
2024-02-20T06:41:36.625Z,179
2024-02-20T06:42:45.675Z,176
2024-02-20T06:43:53.847Z,144
2024-02-20T06:45:03.275Z,157
2024-02-20T06:46:12.202Z,146
2024-02-20T06:47:21.515Z,160
2024-02-20T06:48:30.535Z,155
2024-02-20T06:49:39.703Z,146
2024-02-20T06:50:48.877Z,154
2024-02-20T06:51:58.050Z,185
2024-02-20T06:53:07.275Z,169
2024-02-20T06:54:16.400Z,170
2024-02-20T06:55:25.854Z,157
2024-02-20T06:56:34.849Z,180
2024-02-20T06:57:44.157Z,135
2024-02-20T06:58:52.101Z,153
2024-02-20T07:00:01.275Z,150
2024-02-20T07:01:10.534Z,140
2024-02-20T07:02:19.616Z,155
2024-02-20T07:03:28.918Z,155
2024-02-20T07:04:38.057Z,172
2024-02-20T07:05:47.224Z,167
2024-02-20T07:06:56.584Z,171
2024-02-20T07:08:05.639Z,145
2024-02-20T07:09:14.649Z,151
2024-02-20T07:10:23.825Z,130
2024-02-20T07:11:33.006Z,137
2024-02-20T07:12:42.323Z,160
2024-02-20T07:13:50.476Z,160
2024-02-20T07:14:59.537Z,171
2024-02-20T07:16:08.708Z,152
2024-02-20T07:17:17.890Z,128
2024-02-20T07:19:36.248Z,160
2024-02-20T07:20:45.400Z,157
2024-02-20T07:21:54.586Z,156
2024-02-20T07:23:03.735Z,173
2024-02-20T07:24:12.967Z,147
2024-02-20T07:25:22.147Z,156
2024-02-20T07:26:31.330Z,156
2024-02-20T07:27:40.426Z,173
2024-02-20T07:28:48.644Z,140
2024-02-20T07:29:57.898Z,168
2024-02-20T07:31:06.986Z,211
2024-02-20T07:32:16.415Z,123
2024-02-20T07:33:25.341Z,158
2024-02-20T07:34:34.579Z,178
2024-02-20T07:35:43.668Z,179
2024-02-20T07:36:52.829Z,157
2024-02-20T07:38:02.031Z,200
2024-02-20T07:39:11.278Z,171
2024-02-20T07:40:20.350Z,150
2024-02-20T07:41:29.716Z,130
2024-02-20T07:42:38.688Z,112
2024-02-20T07:43:46.973Z,174
2024-02-20T07:44:56.101Z,163
2024-02-20T07:46:05.242Z,164
2024-02-20T07:47:14.471Z,183
2024-02-20T07:48:23.586Z,167
2024-02-20T07:49:32.872Z,168
2024-02-20T07:50:41.979Z,150
2024-02-20T07:51:51.088Z,147
2024-02-20T07:53:00.259Z,178
2024-02-20T07:54:09.471Z,159
2024-02-20T07:55:18.635Z,168
2024-02-20T07:56:27.774Z,172
2024-02-20T07:57:37.090Z,143
2024-02-20T07:58:45.422Z,180
2024-02-20T07:59:54.307Z,185
2024-02-20T08:01:03.573Z,168
2024-02-20T08:02:12.673Z,161
2024-02-20T08:03:21.886Z,157
2024-02-20T08:04:30.997Z,174
2024-02-20T08:05:40.266Z,131
2024-02-20T08:06:49.351Z,186
2024-02-20T08:07:58.514Z,167
2024-02-20T08:09:07.779Z,178
2024-02-20T08:10:16.867Z,165
2024-02-20T08:11:26.217Z,140
2024-02-20T08:12:35.215Z,150
2024-02-20T08:13:43.404Z,163
2024-02-20T08:14:52.817Z,125
2024-02-20T08:16:01.786Z,168
2024-02-20T08:17:10.964Z,161
2024-02-20T08:18:20.087Z,148
2024-02-20T08:19:29.336Z,163
2024-02-20T08:20:38.440Z,134
2024-02-20T08:21:47.730Z,153
2024-02-20T08:22:56.771Z,153
2024-02-20T08:24:05.940Z,187
2024-02-20T08:25:15.194Z,148
2024-02-20T08:26:24.283Z,198
2024-02-20T08:27:33.510Z,151
2024-02-20T08:28:41.800Z,157
2024-02-20T08:29:50.832Z,184
2024-02-20T08:31:00.041Z,168
2024-02-20T08:32:09.262Z,180
2024-02-20T08:33:18.461Z,157
2024-02-20T08:34:27.586Z,175
2024-02-20T08:35:36.681Z,136
2024-02-20T08:36:45.860Z,172
2024-02-20T08:37:55.043Z,146
2024-02-20T08:39:04.202Z,158
2024-02-20T08:40:13.365Z,155
2024-02-20T08:41:22.683Z,118
2024-02-20T08:42:31.850Z,190
2024-02-20T08:43:39.911Z,158
2024-02-20T08:44:49.128Z,111
2024-02-20T08:45:58.256Z,114
2024-02-20T08:47:07.639Z,185
2024-02-20T08:48:16.596Z,146
2024-02-20T08:49:25.900Z,147
2024-02-20T08:50:34.992Z,181
2024-02-20T08:51:44.363Z,155
2024-02-20T08:52:53.393Z,160
2024-02-20T08:54:02.478Z,139
2024-02-20T08:55:11.669Z,174
2024-02-20T08:56:20.809Z,134
2024-02-20T08:57:30.005Z,136
2024-02-20T08:58:38.166Z,153
2024-02-20T08:59:47.346Z,160
2024-02-20T09:00:56.568Z,192
2024-02-20T09:02:05.712Z,166
2024-02-20T09:03:14.872Z,182
2024-02-20T09:04:24.073Z,135
2024-02-20T09:05:33.320Z,133
2024-02-20T09:06:42.481Z,199
2024-02-20T09:07:51.748Z,178
2024-02-20T09:09:00.739Z,139
2024-02-20T09:10:09.996Z,137
2024-02-20T09:11:19.060Z,137
2024-02-20T09:12:28.344Z,168
2024-02-20T09:13:36.487Z,153
2024-02-20T09:14:45.594Z,172
2024-02-20T09:15:54.804Z,181
2024-02-20T09:17:03.094Z,201
2024-02-20T09:18:12.167Z,173
2024-02-20T09:19:21.320Z,180
2024-02-20T09:20:30.493Z,151
2024-02-20T09:21:39.732Z,156
2024-02-20T09:22:48.909Z,163
2024-02-20T09:23:58.027Z,176
2024-02-20T09:25:07.174Z,156
2024-02-20T09:26:16.375Z,158
2024-02-20T09:27:25.655Z,126
2024-02-20T09:28:34.861Z,189
2024-02-20T09:29:43.900Z,197
2024-02-20T09:30:53.044Z,146
2024-02-20T09:32:01.255Z,130
2024-02-20T09:33:10.503Z,169
2024-02-20T09:34:19.572Z,186
2024-02-20T09:35:28.749Z,193
2024-02-20T09:36:37.930Z,145
2024-02-20T09:37:47.309Z,148
2024-02-20T09:38:56.434Z,173
2024-02-20T09:40:05.426Z,191
2024-02-20T09:41:14.655Z,138
2024-02-20T09:42:23.915Z,175
2024-02-20T09:43:33.192Z,190
2024-02-20T09:44:42.120Z,116
2024-02-20T09:45:51.406Z,136
2024-02-20T09:46:59.505Z,163
2024-02-20T09:48:08.666Z,156
2024-02-20T09:49:17.876Z,163
2024-02-20T09:50:27.012Z,172
2024-02-20T09:51:36.186Z,183
2024-02-20T09:52:45.411Z,124
2024-02-20T09:53:54.612Z,163
2024-02-20T09:55:03.711Z,156
2024-02-20T09:56:12.867Z,163
2024-02-20T09:57:22.211Z,181
2024-02-20T09:58:31.217Z,134
2024-02-20T09:59:40.383Z,134
2024-02-20T10:00:49.540Z,201
2024-02-20T10:01:58.730Z,112
2024-02-20T10:03:06.962Z,174
2024-02-20T10:04:16.207Z,228
2024-02-20T10:05:25.278Z,193
2024-02-20T10:06:34.440Z,141
2024-02-20T10:07:43.614Z,151
2024-02-20T10:08:52.789Z,190
2024-02-20T10:10:02.064Z,152
2024-02-20T10:11:11.122Z,101
2024-02-20T10:12:20.302Z,192
2024-02-20T10:13:29.616Z,146
2024-02-20T10:14:38.666Z,163
2024-02-20T10:15:47.830Z,180
2024-02-20T10:16:57.036Z,190
2024-02-20T10:18:05.268Z,148
2024-02-20T10:19:14.490Z,217
2024-02-20T10:20:23.539Z,135
2024-02-20T10:21:32.761Z,134
2024-02-20T10:22:41.875Z,109
2024-02-20T10:23:51.041Z,169
2024-02-20T10:25:00.256Z,153
2024-02-20T10:26:09.383Z,191
2024-02-20T10:27:18.564Z,180
2024-02-20T10:28:27.729Z,145
2024-02-20T10:29:36.911Z,140
2024-02-20T10:30:46.099Z,184
2024-02-20T10:31:55.256Z,137
2024-02-20T10:33:03.429Z,138
2024-02-20T10:34:12.606Z,173
2024-02-20T10:35:21.854Z,128
2024-02-20T10:36:30.992Z,203
2024-02-20T10:37:40.149Z,127
2024-02-20T10:38:49.288Z,168
2024-02-20T10:39:58.492Z,168
2024-02-20T10:41:07.638Z,164
2024-02-20T10:42:16.807Z,183
2024-02-20T10:43:25.985Z,151
2024-02-20T10:44:35.152Z,186
2024-02-20T10:45:44.322Z,176
2024-02-20T10:46:53.503Z,146
2024-02-20T10:48:01.680Z,181
2024-02-20T10:49:10.881Z,151
2024-02-20T10:50:20.039Z,143
2024-02-20T10:51:29.243Z,152
2024-02-20T10:52:38.399Z,151
2024-02-20T10:53:47.571Z,121
2024-02-20T10:54:56.737Z,140
2024-02-20T10:56:06.042Z,156
2024-02-20T10:57:15.154Z,147
2024-02-20T10:58:24.267Z,153
2024-02-20T10:59:33.405Z,182
2024-02-20T11:00:42.582Z,179
2024-02-20T11:01:51.755Z,203
2024-02-20T11:02:59.950Z,166
2024-02-20T11:04:09.122Z,177
2024-02-20T11:05:18.291Z,157
2024-02-20T11:06:27.610Z,166
2024-02-20T11:07:36.920Z,165
2024-02-20T11:08:45.806Z,174
2024-02-20T11:09:55.265Z,184
2024-02-20T11:11:04.371Z,139
2024-02-20T11:12:13.357Z,131
2024-02-20T11:13:22.884Z,124
2024-02-20T11:14:31.917Z,131
2024-02-20T11:15:41.123Z,123
2024-02-20T11:16:50.012Z,133
2024-02-20T11:17:58.344Z,153
2024-02-20T11:19:07.391Z,145
2024-02-20T11:20:16.619Z,127
2024-02-20T11:21:25.843Z,136
2024-02-20T11:22:34.927Z,151
2024-02-20T11:23:44.158Z,176
2024-02-20T11:24:53.260Z,199
2024-02-20T11:26:02.411Z,199
2024-02-20T11:27:11.590Z,204
2024-02-20T11:28:20.800Z,144
2024-02-20T11:29:29.953Z,171
2024-02-20T11:30:39.173Z,172
2024-02-20T11:31:48.320Z,148
2024-02-20T11:32:56.496Z,175
2024-02-20T11:34:05.648Z,168
2024-02-20T11:35:14.809Z,171
2024-02-20T11:36:23.978Z,177
2024-02-20T11:37:33.217Z,185
2024-02-20T11:38:42.405Z,181
2024-02-20T11:39:51.506Z,165
2024-02-20T11:41:00.751Z,198
2024-02-20T11:42:09.856Z,152
2024-02-20T11:43:19.053Z,129
2024-02-20T11:44:28.181Z,137
2024-02-20T11:45:37.389Z,218
2024-02-20T11:46:46.542Z,165
2024-02-20T11:47:54.720Z,179
2024-02-20T11:49:03.922Z,151
2024-02-20T11:50:13.095Z,173
2024-02-20T11:51:22.264Z,206
2024-02-20T11:52:31.419Z,162
2024-02-20T11:53:40.600Z,143
2024-02-20T11:54:49.759Z,159
2024-02-20T11:55:58.928Z,183
2024-02-20T11:57:08.101Z,170
2024-02-20T11:58:17.283Z,171
2024-02-20T11:59:26.437Z,139
2024-02-20T12:00:35.636Z,214
2024-02-20T12:02:53.973Z,185
2024-02-20T12:04:02.152Z,122
2024-02-20T12:05:11.400Z,210
2024-02-20T12:06:20.517Z,161
2024-02-20T12:07:29.748Z,167
2024-02-20T12:08:38.856Z,175
2024-02-20T12:09:48.023Z,163
2024-02-20T12:10:57.186Z,162
2024-02-20T12:12:06.391Z,154
2024-02-20T12:13:15.572Z,137
2024-02-20T12:14:24.711Z,190
2024-02-20T12:15:33.869Z,122
2024-02-20T12:16:43.053Z,181
2024-02-20T12:17:52.267Z,122
2024-02-20T12:19:00.413Z,149
2024-02-20T12:20:09.598Z,122
2024-02-20T12:21:18.959Z,236
2024-02-20T12:22:28.252Z,167
2024-02-20T12:23:37.281Z,173
2024-02-20T12:24:46.360Z,246
2024-02-20T12:27:04.819Z,134
2024-02-20T12:30:32.234Z,144
2024-02-20T12:31:40.519Z,177
2024-02-20T12:32:48.667Z,190
2024-02-20T12:33:56.780Z,165
2024-02-20T12:35:05.913Z,123
2024-02-20T12:36:15.080Z,217
2024-02-20T12:37:24.283Z,137
2024-02-20T12:38:33.424Z,228
2024-02-20T12:39:42.726Z,226
2024-02-20T12:40:51.878Z,165
2024-02-20T12:42:01.074Z,217
2024-02-20T12:43:10.107Z,127
2024-02-20T12:44:18.486Z,146
2024-02-20T12:45:26.580Z,200
2024-02-20T12:46:34.662Z,190
2024-02-20T12:47:43.839Z,225
2024-02-20T12:48:53.008Z,151
2024-02-20T12:50:02.198Z,123
2024-02-20T12:51:11.468Z,168
2024-02-20T12:52:20.583Z,176
2024-02-20T12:53:29.700Z,121
2024-02-20T12:54:38.900Z,157
2024-02-20T12:55:48.057Z,208
2024-02-20T12:56:57.245Z,190
2024-02-20T12:58:06.399Z,156
2024-02-20T12:59:15.569Z,111
2024-02-20T13:00:24.743Z,147
2024-02-20T13:01:33.037Z,144
2024-02-20T13:02:42.122Z,144
2024-02-20T13:03:51.260Z,129
2024-02-20T13:05:00.450Z,199
2024-02-20T13:06:09.642Z,168
2024-02-20T13:07:18.821Z,168
2024-02-20T13:08:27.970Z,142
2024-02-20T13:09:37.173Z,167
2024-02-20T13:10:45.376Z,190
2024-02-20T13:11:53.531Z,165
2024-02-20T13:13:02.715Z,171
2024-02-20T13:14:11.881Z,179
2024-02-20T13:15:21.063Z,224
2024-02-20T13:16:30.304Z,140
2024-02-20T13:17:39.467Z,191
2024-02-20T13:18:48.583Z,197
2024-02-20T13:21:06.935Z,145
2024-02-20T13:22:16.077Z,171
2024-02-20T13:23:25.285Z,188
2024-02-20T13:24:34.465Z,127
2024-02-20T13:25:43.623Z,171
2024-02-20T13:26:51.812Z,180
2024-02-20T13:28:00.993Z,159
2024-02-20T13:29:10.135Z,175
2024-02-20T13:30:19.327Z,192
2024-02-20T13:31:28.498Z,139
2024-02-20T13:32:37.659Z,180
2024-02-20T13:33:46.833Z,225
2024-02-20T13:34:55.029Z,204
2024-02-20T13:36:03.211Z,199
2024-02-20T13:37:11.472Z,148
2024-02-20T13:38:20.599Z,154
2024-02-20T13:39:29.846Z,156
2024-02-20T13:40:39.124Z,172
2024-02-20T13:41:48.116Z,123
2024-02-20T13:42:57.345Z,190
2024-02-20T13:44:06.571Z,171
2024-02-20T13:45:15.683Z,147
2024-02-20T13:46:24.885Z,172
2024-02-20T13:47:33.950Z,174
2024-02-20T13:48:43.125Z,175
2024-02-20T13:49:52.299Z,155
2024-02-20T13:51:01.484Z,170
2024-02-20T13:52:09.666Z,134
2024-02-20T13:54:28.037Z,176
2024-02-20T13:55:37.197Z,169
2024-02-20T13:56:46.355Z,167
2024-02-20T13:57:55.522Z,160
2024-02-20T13:59:04.701Z,183
2024-02-20T14:00:12.892Z,152
2024-02-20T14:01:21.111Z,167
2024-02-20T14:02:30.255Z,137
2024-02-20T14:03:39.453Z,175
2024-02-20T14:04:48.651Z,222
2024-02-20T14:05:57.778Z,206
2024-02-20T14:07:06.934Z,165
2024-02-20T14:08:16.138Z,197
2024-02-20T14:09:25.325Z,162
2024-02-20T14:10:34.454Z,168
2024-02-20T14:11:43.630Z,177
2024-02-20T14:12:52.809Z,155
2024-02-20T14:14:01.981Z,128
2024-02-20T14:15:11.161Z,174
2024-02-20T14:16:19.366Z,172
2024-02-20T14:17:28.511Z,172
2024-02-20T14:18:37.698Z,161
2024-02-20T14:19:46.856Z,142
2024-02-20T14:20:56.025Z,178
2024-02-20T14:22:05.223Z,144
2024-02-20T14:23:13.391Z,180
2024-02-20T14:24:22.563Z,149
2024-02-20T14:25:30.754Z,152
2024-02-20T14:26:40.168Z,127
2024-02-20T14:27:49.101Z,166
2024-02-20T14:28:58.282Z,151
2024-02-20T14:30:07.461Z,193
2024-02-20T14:31:16.606Z,153
2024-02-20T14:32:25.787Z,135
2024-02-20T14:33:34.954Z,170
2024-02-20T14:34:44.158Z,177
2024-02-20T14:35:53.335Z,198
2024-02-20T14:37:02.557Z,163
2024-02-20T14:38:11.658Z,176
2024-02-20T14:39:20.853Z,155
2024-02-20T14:40:29.016Z,154
2024-02-20T14:41:38.220Z,147
2024-02-20T14:42:47.349Z,167
2024-02-20T14:43:56.665Z,162
2024-02-20T14:45:05.703Z,154
2024-02-20T14:46:13.908Z,138
2024-02-20T14:47:22.113Z,187
2024-02-20T14:48:31.258Z,166
2024-02-20T14:49:39.457Z,166
2024-02-20T14:50:48.629Z,142
2024-02-20T14:53:06.970Z,155
2024-02-20T14:54:16.358Z,182
2024-02-20T14:55:25.306Z,146
2024-02-20T14:56:34.524Z,135
2024-02-20T14:57:43.771Z,203
2024-02-20T14:58:52.829Z,184
2024-02-20T15:00:02.004Z,162
2024-02-20T15:01:11.185Z,157
2024-02-20T15:02:20.361Z,181
2024-02-20T15:03:29.835Z,154
2024-02-20T15:04:37.712Z,148
2024-02-20T15:05:46.884Z,158
2024-02-20T15:06:56.078Z,170
2024-02-20T15:08:05.237Z,137
2024-02-20T15:09:14.397Z,174
2024-02-20T15:10:23.594Z,140
2024-02-20T15:11:31.772Z,164
2024-02-20T15:12:39.967Z,192
2024-02-20T15:13:49.151Z,186
2024-02-20T15:14:58.323Z,167
2024-02-20T15:16:07.470Z,151
2024-02-20T15:17:16.634Z,156
2024-02-20T15:18:25.846Z,137
2024-02-20T15:19:34.992Z,162
2024-02-20T15:20:44.163Z,170
2024-02-20T15:21:53.346Z,132
2024-02-20T15:23:02.506Z,132
2024-02-20T15:24:11.681Z,110
2024-02-20T15:25:20.846Z,187
2024-02-20T15:26:30.346Z,140
2024-02-20T15:27:38.227Z,142
2024-02-20T15:28:47.404Z,151
2024-02-20T15:29:56.602Z,151
2024-02-20T15:31:05.792Z,170
2024-02-20T15:32:14.930Z,169
2024-02-20T15:33:24.076Z,192
2024-02-20T15:34:32.289Z,191
2024-02-20T15:35:40.464Z,128
2024-02-20T15:36:48.737Z,130
2024-02-20T15:37:57.828Z,174
2024-02-20T15:39:07.014Z,157
2024-02-20T15:40:16.169Z,190
2024-02-20T15:41:25.343Z,208
2024-02-20T15:42:34.525Z,168
2024-02-20T15:43:43.697Z,139
2024-02-20T15:44:52.967Z,192
2024-02-20T15:46:02.085Z,177
2024-02-20T15:47:11.290Z,154
2024-02-20T15:49:29.551Z,180
2024-02-20T15:50:38.730Z,194
2024-02-20T15:51:47.010Z,199
2024-02-20T15:52:56.170Z,170
2024-02-20T15:54:05.394Z,175
2024-02-20T15:55:14.475Z,168
2024-02-20T15:56:23.703Z,181
2024-02-20T15:57:32.852Z,172
2024-02-20T15:58:42.045Z,183
2024-02-20T15:59:51.119Z,123
2024-02-20T16:00:59.394Z,188
2024-02-20T16:02:07.513Z,165
2024-02-20T16:03:16.746Z,137
2024-02-20T16:04:25.844Z,196
2024-02-20T16:05:35.019Z,152
2024-02-20T16:06:44.199Z,178
2024-02-20T16:07:53.369Z,156